sensor_id;sensor_type;location;lat;lon;timestamp;P1;durP1;ratioP1;P2;durP2;ratioP2
84142;SDS011;74260;50.772;7.730;2024-01-07T00:00:09;18.35;;;8.32;;
84142;SDS011;74260;50.772;7.730;2024-01-07T00:00:40;19.75;;;9.07;;
84142;SDS011;74260;50.772;7.730;2024-01-07T00:01:10;16.60;;;7.93;;
84142;SDS011;74260;50.772;7.730;2024-01-07T00:01:45;17.42;;;8.25;;
84142;SDS011;74260;50.772;7.730;2024-01-07T00:02:19;19.13;;;8.38;;
84142;SDS011;74260;50.772;7.730;2024-01-07T00:02:50;19.75;;;8.45;;
84142;SDS011;74260;50.772;7.730;2024-01-07T00:03:20;20.17;;;8.77;;
84142;SDS011;74260;50.772;7.730;2024-01-07T00:03:51;18.52;;;8.70;;
84142;SDS011;74260;50.772;7.730;2024-01-07T00:04:22;21.50;;;9.50;;
84142;SDS011;74260;50.772;7.730;2024-01-07T00:04:52;20.38;;;8.77;;
84142;SDS011;74260;50.772;7.730;2024-01-07T00:05:22;18.83;;;8.93;;
84142;SDS011;74260;50.772;7.730;2024-01-07T00:05:53;18.00;;;8.63;;
84142;SDS011;74260;50.772;7.730;2024-01-07T00:06:23;19.38;;;9.50;;
84142;SDS011;74260;50.772;7.730;2024-01-07T00:06:53;18.70;;;9.00;;
84142;SDS011;74260;50.772;7.730;2024-01-07T00:07:24;20.83;;;9.50;;
84142;SDS011;74260;50.772;7.730;2024-01-07T00:07:54;18.48;;;8.60;;
84142;SDS011;74260;50.772;7.730;2024-01-07T00:08:24;21.02;;;9.50;;
84142;SDS011;74260;50.772;7.730;2024-01-07T00:08:55;15.57;;;8.05;;
84142;SDS011;74260;50.772;7.730;2024-01-07T00:09:25;19.48;;;8.50;;
84142;SDS011;74260;50.772;7.730;2024-01-07T00:09:55;21.52;;;9.27;;
84142;SDS011;74260;50.772;7.730;2024-01-07T00:10:26;16.75;;;8.35;;
84142;SDS011;74260;50.772;7.730;2024-01-07T00:10:56;21.50;;;8.85;;
84142;SDS011;74260;50.772;7.730;2024-01-07T00:11:26;24.15;;;9.45;;
84142;SDS011;74260;50.772;7.730;2024-01-07T00:11:57;19.27;;;8.85;;
84142;SDS011;74260;50.772;7.730;2024-01-07T00:12:27;23.70;;;9.50;;
84142;SDS011;74260;50.772;7.730;2024-01-07T00:12:58;18.30;;;8.45;;
84142;SDS011;74260;50.772;7.730;2024-01-07T00:13:28;20.80;;;9.02;;
84142;SDS011;74260;50.772;7.730;2024-01-07T00:13:58;24.08;;;9.07;;
84142;SDS011;74260;50.772;7.730;2024-01-07T00:14:29;17.35;;;8.32;;
84142;SDS011;74260;50.772;7.730;2024-01-07T00:14:59;20.17;;;8.55;;
84142;SDS011;74260;50.772;7.730;2024-01-07T00:15:29;18.15;;;9.35;;
84142;SDS011;74260;50.772;7.730;2024-01-07T00:16:00;20.77;;;9.20;;
84142;SDS011;74260;50.772;7.730;2024-01-07T00:16:30;16.58;;;8.45;;
84142;SDS011;74260;50.772;7.730;2024-01-07T00:17:01;18.02;;;8.48;;
84142;SDS011;74260;50.772;7.730;2024-01-07T00:17:31;20.73;;;9.25;;
84142;SDS011;74260;50.772;7.730;2024-01-07T00:18:01;16.70;;;8.23;;
84142;SDS011;74260;50.772;7.730;2024-01-07T00:18:32;17.95;;;8.52;;
84142;SDS011;74260;50.772;7.730;2024-01-07T00:19:03;19.88;;;8.63;;
84142;SDS011;74260;50.772;7.730;2024-01-07T00:19:33;19.63;;;9.48;;
84142;SDS011;74260;50.772;7.730;2024-01-07T00:20:36;17.15;;;7.65;;
84142;SDS011;74260;50.772;7.730;2024-01-07T00:21:08;18.65;;;8.05;;
84142;SDS011;74260;50.772;7.730;2024-01-07T00:21:38;18.08;;;7.97;;
84142;SDS011;74260;50.772;7.730;2024-01-07T00:22:08;16.90;;;8.80;;
84142;SDS011;74260;50.772;7.730;2024-01-07T00:22:39;19.77;;;7.93;;
84142;SDS011;74260;50.772;7.730;2024-01-07T00:23:09;18.08;;;8.15;;
84142;SDS011;74260;50.772;7.730;2024-01-07T00:23:39;18.35;;;8.32;;
84142;SDS011;74260;50.772;7.730;2024-01-07T00:24:10;17.55;;;8.88;;
84142;SDS011;74260;50.772;7.730;2024-01-07T00:24:40;20.38;;;8.75;;
84142;SDS011;74260;50.772;7.730;2024-01-07T00:25:11;19.38;;;8.57;;
84142;SDS011;74260;50.772;7.730;2024-01-07T00:25:41;20.80;;;9.23;;
84142;SDS011;74260;50.772;7.730;2024-01-07T00:26:11;18.33;;;8.80;;
84142;SDS011;74260;50.772;7.730;2024-01-07T00:26:42;19.38;;;9.35;;
84142;SDS011;74260;50.772;7.730;2024-01-07T00:27:12;15.10;;;7.68;;
84142;SDS011;74260;50.772;7.730;2024-01-07T00:27:42;20.80;;;8.27;;
84142;SDS011;74260;50.772;7.730;2024-01-07T00:28:13;16.92;;;8.27;;
84142;SDS011;74260;50.772;7.730;2024-01-07T00:28:43;19.95;;;9.25;;
84142;SDS011;74260;50.772;7.730;2024-01-07T00:29:16;17.15;;;8.15;;
84142;SDS011;74260;50.772;7.730;2024-01-07T00:30:37;18.75;;;7.78;;
84142;SDS011;74260;50.772;7.730;2024-01-07T00:31:07;18.15;;;7.80;;
84142;SDS011;74260;50.772;7.730;2024-01-07T00:31:39;17.52;;;9.20;;
84142;SDS011;74260;50.772;7.730;2024-01-07T00:32:09;19.90;;;8.77;;
84142;SDS011;74260;50.772;7.730;2024-01-07T00:32:39;18.38;;;8.95;;
84142;SDS011;74260;50.772;7.730;2024-01-07T00:33:10;19.95;;;8.88;;
84142;SDS011;74260;50.772;7.730;2024-01-07T00:33:41;21.00;;;8.60;;
84142;SDS011;74260;50.772;7.730;2024-01-07T00:34:11;18.58;;;8.43;;
84142;SDS011;74260;50.772;7.730;2024-01-07T00:34:41;19.73;;;8.18;;
84142;SDS011;74260;50.772;7.730;2024-01-07T00:35:12;17.70;;;8.45;;
84142;SDS011;74260;50.772;7.730;2024-01-07T00:35:42;17.77;;;8.45;;
84142;SDS011;74260;50.772;7.730;2024-01-07T00:36:13;18.27;;;7.85;;
84142;SDS011;74260;50.772;7.730;2024-01-07T00:36:43;16.63;;;7.63;;
84142;SDS011;74260;50.772;7.730;2024-01-07T00:37:13;16.55;;;8.75;;
84142;SDS011;74260;50.772;7.730;2024-01-07T00:37:44;17.85;;;8.10;;
84142;SDS011;74260;50.772;7.730;2024-01-07T00:38:14;18.42;;;8.27;;
84142;SDS011;74260;50.772;7.730;2024-01-07T00:38:45;16.25;;;7.70;;
84142;SDS011;74260;50.772;7.730;2024-01-07T00:39:15;18.08;;;8.70;;
84142;SDS011;74260;50.772;7.730;2024-01-07T00:39:45;18.92;;;8.13;;
84142;SDS011;74260;50.772;7.730;2024-01-07T00:40:16;17.17;;;7.97;;
84142;SDS011;74260;50.772;7.730;2024-01-07T00:40:46;19.58;;;8.20;;
84142;SDS011;74260;50.772;7.730;2024-01-07T00:41:16;17.27;;;7.97;;
84142;SDS011;74260;50.772;7.730;2024-01-07T00:41:47;17.60;;;7.95;;
84142;SDS011;74260;50.772;7.730;2024-01-07T00:42:17;17.67;;;8.13;;
84142;SDS011;74260;50.772;7.730;2024-01-07T00:42:47;15.75;;;7.95;;
84142;SDS011;74260;50.772;7.730;2024-01-07T00:43:18;19.75;;;8.98;;
84142;SDS011;74260;50.772;7.730;2024-01-07T00:43:48;17.88;;;8.10;;
84142;SDS011;74260;50.772;7.730;2024-01-07T00:44:19;15.43;;;8.05;;
84142;SDS011;74260;50.772;7.730;2024-01-07T00:44:49;17.95;;;7.78;;
84142;SDS011;74260;50.772;7.730;2024-01-07T00:45:19;20.75;;;8.02;;
84142;SDS011;74260;50.772;7.730;2024-01-07T00:45:51;18.52;;;8.15;;
84142;SDS011;74260;50.772;7.730;2024-01-07T00:46:22;18.65;;;8.70;;
84142;SDS011;74260;50.772;7.730;2024-01-07T00:46:53;19.58;;;8.65;;
84142;SDS011;74260;50.772;7.730;2024-01-07T00:47:23;18.63;;;8.15;;
84142;SDS011;74260;50.772;7.730;2024-01-07T00:47:53;16.48;;;7.88;;
84142;SDS011;74260;50.772;7.730;2024-01-07T00:48:24;17.35;;;8.50;;
84142;SDS011;74260;50.772;7.730;2024-01-07T00:48:55;17.70;;;8.23;;
84142;SDS011;74260;50.772;7.730;2024-01-07T00:49:25;16.33;;;7.60;;
84142;SDS011;74260;50.772;7.730;2024-01-07T00:50:28;16.20;;;7.33;;
84142;SDS011;74260;50.772;7.730;2024-01-07T00:50:58;15.07;;;7.47;;
84142;SDS011;74260;50.772;7.730;2024-01-07T00:51:28;19.20;;;7.10;;
84142;SDS011;74260;50.772;7.730;2024-01-07T00:51:59;17.05;;;8.13;;
84142;SDS011;74260;50.772;7.730;2024-01-07T00:52:29;14.98;;;7.20;;
84142;SDS011;74260;50.772;7.730;2024-01-07T00:52:59;14.75;;;7.10;;
84142;SDS011;74260;50.772;7.730;2024-01-07T00:53:31;16.40;;;7.35;;
84142;SDS011;74260;50.772;7.730;2024-01-07T00:54:01;16.92;;;8.02;;
84142;SDS011;74260;50.772;7.730;2024-01-07T00:54:31;18.65;;;7.65;;
84142;SDS011;74260;50.772;7.730;2024-01-07T00:55:05;19.90;;;8.90;;
84142;SDS011;74260;50.772;7.730;2024-01-07T00:55:36;16.35;;;8.48;;
84142;SDS011;74260;50.772;7.730;2024-01-07T00:56:06;19.20;;;8.32;;
84142;SDS011;74260;50.772;7.730;2024-01-07T00:56:37;16.45;;;7.10;;
84142;SDS011;74260;50.772;7.730;2024-01-07T00:57:07;16.38;;;7.95;;
84142;SDS011;74260;50.772;7.730;2024-01-07T00:57:40;19.67;;;7.75;;
84142;SDS011;74260;50.772;7.730;2024-01-07T00:58:10;16.13;;;7.80;;
84142;SDS011;74260;50.772;7.730;2024-01-07T00:58:41;17.77;;;8.00;;
84142;SDS011;74260;50.772;7.730;2024-01-07T00:59:11;17.83;;;8.23;;
84142;SDS011;74260;50.772;7.730;2024-01-07T00:59:42;19.60;;;8.43;;
84142;SDS011;74260;50.772;7.730;2024-01-07T01:00:12;17.15;;;7.82;;
84142;SDS011;74260;50.772;7.730;2024-01-07T01:00:43;16.25;;;8.25;;
84142;SDS011;74260;50.772;7.730;2024-01-07T01:01:13;15.38;;;7.85;;
84142;SDS011;74260;50.772;7.730;2024-01-07T01:01:43;15.13;;;7.60;;
84142;SDS011;74260;50.772;7.730;2024-01-07T01:02:13;18.05;;;8.52;;
84142;SDS011;74260;50.772;7.730;2024-01-07T01:02:44;15.15;;;7.95;;
84142;SDS011;74260;50.772;7.730;2024-01-07T01:03:15;16.70;;;7.93;;
84142;SDS011;74260;50.772;7.730;2024-01-07T01:03:45;16.58;;;7.45;;
84142;SDS011;74260;50.772;7.730;2024-01-07T01:04:16;16.13;;;7.60;;
84142;SDS011;74260;50.772;7.730;2024-01-07T01:04:46;17.00;;;7.78;;
84142;SDS011;74260;50.772;7.730;2024-01-07T01:05:17;16.08;;;7.88;;
84142;SDS011;74260;50.772;7.730;2024-01-07T01:05:48;16.88;;;7.72;;
84142;SDS011;74260;50.772;7.730;2024-01-07T01:06:18;15.52;;;8.13;;
84142;SDS011;74260;50.772;7.730;2024-01-07T01:06:49;16.88;;;7.72;;
84142;SDS011;74260;50.772;7.730;2024-01-07T01:07:19;15.32;;;7.65;;
84142;SDS011;74260;50.772;7.730;2024-01-07T01:07:49;16.27;;;8.15;;
84142;SDS011;74260;50.772;7.730;2024-01-07T01:08:21;17.20;;;8.00;;
84142;SDS011;74260;50.772;7.730;2024-01-07T01:08:53;16.95;;;8.35;;
84142;SDS011;74260;50.772;7.730;2024-01-07T01:09:23;17.10;;;7.65;;
84142;SDS011;74260;50.772;7.730;2024-01-07T01:09:54;17.35;;;7.43;;
84142;SDS011;74260;50.772;7.730;2024-01-07T01:10:24;14.57;;;7.25;;
84142;SDS011;74260;50.772;7.730;2024-01-07T01:10:55;13.70;;;7.03;;
84142;SDS011;74260;50.772;7.730;2024-01-07T01:11:25;18.38;;;8.35;;
84142;SDS011;74260;50.772;7.730;2024-01-07T01:11:57;16.95;;;7.72;;
84142;SDS011;74260;50.772;7.730;2024-01-07T01:12:27;17.48;;;8.13;;
84142;SDS011;74260;50.772;7.730;2024-01-07T01:12:57;14.82;;;7.20;;
84142;SDS011;74260;50.772;7.730;2024-01-07T01:13:28;17.65;;;8.27;;
84142;SDS011;74260;50.772;7.730;2024-01-07T01:13:58;15.60;;;7.45;;
84142;SDS011;74260;50.772;7.730;2024-01-07T01:14:28;15.32;;;7.10;;
84142;SDS011;74260;50.772;7.730;2024-01-07T01:14:59;15.02;;;7.35;;
84142;SDS011;74260;50.772;7.730;2024-01-07T01:15:29;15.23;;;7.32;;
84142;SDS011;74260;50.772;7.730;2024-01-07T01:16:02;14.15;;;7.20;;
84142;SDS011;74260;50.772;7.730;2024-01-07T01:16:33;16.17;;;7.38;;
84142;SDS011;74260;50.772;7.730;2024-01-07T01:17:03;15.85;;;7.30;;
84142;SDS011;74260;50.772;7.730;2024-01-07T01:17:34;15.85;;;7.57;;
84142;SDS011;74260;50.772;7.730;2024-01-07T01:18:05;15.77;;;7.45;;
84142;SDS011;74260;50.772;7.730;2024-01-07T01:18:35;17.27;;;7.40;;
84142;SDS011;74260;50.772;7.730;2024-01-07T01:19:05;15.05;;;7.18;;
84142;SDS011;74260;50.772;7.730;2024-01-07T01:19:36;15.60;;;7.45;;
84142;SDS011;74260;50.772;7.730;2024-01-07T01:20:06;14.30;;;7.22;;
84142;SDS011;74260;50.772;7.730;2024-01-07T01:20:37;15.88;;;7.55;;
84142;SDS011;74260;50.772;7.730;2024-01-07T01:21:07;17.80;;;8.27;;
84142;SDS011;74260;50.772;7.730;2024-01-07T01:21:38;17.17;;;8.70;;
84142;SDS011;74260;50.772;7.730;2024-01-07T01:22:08;16.88;;;7.63;;
84142;SDS011;74260;50.772;7.730;2024-01-07T01:22:39;17.67;;;8.35;;
84142;SDS011;74260;50.772;7.730;2024-01-07T01:23:09;15.63;;;7.45;;
84142;SDS011;74260;50.772;7.730;2024-01-07T01:23:39;16.45;;;8.13;;
84142;SDS011;74260;50.772;7.730;2024-01-07T01:24:10;16.25;;;7.25;;
84142;SDS011;74260;50.772;7.730;2024-01-07T01:24:40;17.30;;;7.82;;
84142;SDS011;74260;50.772;7.730;2024-01-07T01:25:11;21.65;;;8.40;;
84142;SDS011;74260;50.772;7.730;2024-01-07T01:25:41;18.00;;;8.13;;
84142;SDS011;74260;50.772;7.730;2024-01-07T01:26:12;18.67;;;8.25;;
84142;SDS011;74260;50.772;7.730;2024-01-07T01:26:42;17.85;;;8.38;;
84142;SDS011;74260;50.772;7.730;2024-01-07T01:27:12;17.13;;;7.75;;
84142;SDS011;74260;50.772;7.730;2024-01-07T01:27:44;18.42;;;8.30;;
84142;SDS011;74260;50.772;7.730;2024-01-07T01:28:15;16.33;;;8.27;;
84142;SDS011;74260;50.772;7.730;2024-01-07T01:28:45;16.23;;;8.02;;
84142;SDS011;74260;50.772;7.730;2024-01-07T01:29:15;16.80;;;7.53;;
84142;SDS011;74260;50.772;7.730;2024-01-07T01:29:46;15.02;;;7.90;;
84142;SDS011;74260;50.772;7.730;2024-01-07T01:30:16;14.13;;;7.22;;
84142;SDS011;74260;50.772;7.730;2024-01-07T01:30:46;17.00;;;8.23;;
84142;SDS011;74260;50.772;7.730;2024-01-07T01:31:17;16.90;;;8.27;;
84142;SDS011;74260;50.772;7.730;2024-01-07T01:31:47;17.55;;;8.10;;
84142;SDS011;74260;50.772;7.730;2024-01-07T01:32:17;15.90;;;8.18;;
84142;SDS011;74260;50.772;7.730;2024-01-07T01:32:48;17.40;;;7.95;;
84142;SDS011;74260;50.772;7.730;2024-01-07T01:33:18;18.50;;;8.10;;
84142;SDS011;74260;50.772;7.730;2024-01-07T01:33:48;16.80;;;8.13;;
84142;SDS011;74260;50.772;7.730;2024-01-07T01:34:19;17.88;;;7.68;;
84142;SDS011;74260;50.772;7.730;2024-01-07T01:34:49;15.75;;;7.65;;
84142;SDS011;74260;50.772;7.730;2024-01-07T01:35:20;17.45;;;7.32;;
84142;SDS011;74260;50.772;7.730;2024-01-07T01:35:50;16.13;;;7.60;;
84142;SDS011;74260;50.772;7.730;2024-01-07T01:36:21;15.50;;;7.78;;
84142;SDS011;74260;50.772;7.730;2024-01-07T01:36:51;15.23;;;7.72;;
84142;SDS011;74260;50.772;7.730;2024-01-07T01:37:21;17.27;;;7.90;;
84142;SDS011;74260;50.772;7.730;2024-01-07T01:37:52;18.77;;;8.00;;
84142;SDS011;74260;50.772;7.730;2024-01-07T01:38:24;15.52;;;7.30;;
84142;SDS011;74260;50.772;7.730;2024-01-07T01:38:54;15.90;;;7.53;;
84142;SDS011;74260;50.772;7.730;2024-01-07T01:39:25;15.05;;;7.32;;
84142;SDS011;74260;50.772;7.730;2024-01-07T01:39:55;17.33;;;7.80;;
84142;SDS011;74260;50.772;7.730;2024-01-07T01:40:25;18.23;;;8.20;;
84142;SDS011;74260;50.772;7.730;2024-01-07T01:40:56;21.42;;;8.27;;
84142;SDS011;74260;50.772;7.730;2024-01-07T01:41:26;14.88;;;6.70;;
84142;SDS011;74260;50.772;7.730;2024-01-07T01:41:57;14.77;;;6.45;;
84142;SDS011;74260;50.772;7.730;2024-01-07T01:42:28;17.00;;;6.68;;
84142;SDS011;74260;50.772;7.730;2024-01-07T01:42:58;15.85;;;7.55;;
84142;SDS011;74260;50.772;7.730;2024-01-07T01:43:28;16.20;;;7.35;;
84142;SDS011;74260;50.772;7.730;2024-01-07T01:43:59;13.00;;;6.53;;
84142;SDS011;74260;50.772;7.730;2024-01-07T01:44:30;16.10;;;7.32;;
84142;SDS011;74260;50.772;7.730;2024-01-07T01:45:01;17.20;;;7.20;;
84142;SDS011;74260;50.772;7.730;2024-01-07T01:45:32;16.35;;;6.68;;
84142;SDS011;74260;50.772;7.730;2024-01-07T01:46:02;14.23;;;7.00;;
84142;SDS011;74260;50.772;7.730;2024-01-07T01:46:33;15.38;;;7.15;;
84142;SDS011;74260;50.772;7.730;2024-01-07T01:47:03;12.90;;;6.32;;
84142;SDS011;74260;50.772;7.730;2024-01-07T01:47:36;13.02;;;6.57;;
84142;SDS011;74260;50.772;7.730;2024-01-07T01:48:07;12.68;;;6.47;;
84142;SDS011;74260;50.772;7.730;2024-01-07T01:48:37;11.63;;;5.78;;
84142;SDS011;74260;50.772;7.730;2024-01-07T01:49:08;13.05;;;6.88;;
84142;SDS011;74260;50.772;7.730;2024-01-07T01:49:39;11.70;;;5.95;;
84142;SDS011;74260;50.772;7.730;2024-01-07T01:50:09;16.13;;;6.95;;
84142;SDS011;74260;50.772;7.730;2024-01-07T01:50:41;12.82;;;5.88;;
84142;SDS011;74260;50.772;7.730;2024-01-07T01:51:11;15.50;;;6.68;;
84142;SDS011;74260;50.772;7.730;2024-01-07T01:51:42;14.23;;;5.97;;
84142;SDS011;74260;50.772;7.730;2024-01-07T01:52:12;12.30;;;6.28;;
84142;SDS011;74260;50.772;7.730;2024-01-07T01:52:44;13.98;;;5.97;;
84142;SDS011;74260;50.772;7.730;2024-01-07T01:53:15;14.32;;;6.65;;
84142;SDS011;74260;50.772;7.730;2024-01-07T01:53:46;15.20;;;6.15;;
84142;SDS011;74260;50.772;7.730;2024-01-07T01:54:17;13.65;;;6.40;;
84142;SDS011;74260;50.772;7.730;2024-01-07T01:54:48;14.13;;;6.30;;
84142;SDS011;74260;50.772;7.730;2024-01-07T01:55:19;14.00;;;6.65;;
84142;SDS011;74260;50.772;7.730;2024-01-07T01:55:49;16.70;;;6.25;;
84142;SDS011;74260;50.772;7.730;2024-01-07T01:56:20;16.35;;;6.53;;
84142;SDS011;74260;50.772;7.730;2024-01-07T01:56:50;13.80;;;6.75;;
84142;SDS011;74260;50.772;7.730;2024-01-07T01:57:21;13.85;;;6.18;;
84142;SDS011;74260;50.772;7.730;2024-01-07T01:57:54;10.60;;;5.47;;
84142;SDS011;74260;50.772;7.730;2024-01-07T01:58:26;13.15;;;5.70;;
84142;SDS011;74260;50.772;7.730;2024-01-07T01:58:59;10.98;;;5.63;;
84142;SDS011;74260;50.772;7.730;2024-01-07T01:59:29;14.77;;;5.72;;
84142;SDS011;74260;50.772;7.730;2024-01-07T02:00:02;12.52;;;6.22;;
84142;SDS011;74260;50.772;7.730;2024-01-07T02:00:34;13.30;;;5.90;;
84142;SDS011;74260;50.772;7.730;2024-01-07T02:01:07;11.40;;;6.00;;
84142;SDS011;74260;50.772;7.730;2024-01-07T02:01:38;13.65;;;5.90;;
84142;SDS011;74260;50.772;7.730;2024-01-07T02:02:09;12.85;;;6.20;;
84142;SDS011;74260;50.772;7.730;2024-01-07T02:02:39;12.02;;;5.47;;
84142;SDS011;74260;50.772;7.730;2024-01-07T02:03:10;13.80;;;6.40;;
84142;SDS011;74260;50.772;7.730;2024-01-07T02:03:41;13.50;;;6.10;;
84142;SDS011;74260;50.772;7.730;2024-01-07T02:04:11;17.15;;;6.53;;
84142;SDS011;74260;50.772;7.730;2024-01-07T02:04:41;11.95;;;5.82;;
84142;SDS011;74260;50.772;7.730;2024-01-07T02:05:12;11.73;;;5.70;;
84142;SDS011;74260;50.772;7.730;2024-01-07T02:05:43;12.80;;;5.97;;
84142;SDS011;74260;50.772;7.730;2024-01-07T02:06:15;9.18;;;4.55;;
84142;SDS011;74260;50.772;7.730;2024-01-07T02:06:46;12.07;;;5.07;;
84142;SDS011;74260;50.772;7.730;2024-01-07T02:07:16;10.50;;;5.22;;
84142;SDS011;74260;50.772;7.730;2024-01-07T02:07:47;9.75;;;4.72;;
84142;SDS011;74260;50.772;7.730;2024-01-07T02:08:18;9.63;;;5.43;;
84142;SDS011;74260;50.772;7.730;2024-01-07T02:08:49;12.02;;;5.22;;
84142;SDS011;74260;50.772;7.730;2024-01-07T02:09:20;12.70;;;5.70;;
84142;SDS011;74260;50.772;7.730;2024-01-07T02:09:50;9.88;;;5.55;;
84142;SDS011;74260;50.772;7.730;2024-01-07T02:10:20;10.57;;;5.57;;
84142;SDS011;74260;50.772;7.730;2024-01-07T02:10:51;11.40;;;5.20;;
84142;SDS011;74260;50.772;7.730;2024-01-07T02:11:22;9.25;;;4.75;;
84142;SDS011;74260;50.772;7.730;2024-01-07T02:12:02;10.65;;;4.82;;
84142;SDS011;74260;50.772;7.730;2024-01-07T02:12:32;9.82;;;5.10;;
84142;SDS011;74260;50.772;7.730;2024-01-07T02:13:03;12.85;;;5.32;;
84142;SDS011;74260;50.772;7.730;2024-01-07T02:13:33;10.40;;;5.50;;
84142;SDS011;74260;50.772;7.730;2024-01-07T02:14:04;8.95;;;4.90;;
84142;SDS011;74260;50.772;7.730;2024-01-07T02:14:34;10.57;;;5.38;;
84142;SDS011;74260;50.772;7.730;2024-01-07T02:15:05;10.48;;;5.38;;
84142;SDS011;74260;50.772;7.730;2024-01-07T02:15:35;11.95;;;5.65;;
84142;SDS011;74260;50.772;7.730;2024-01-07T02:16:06;10.20;;;4.95;;
84142;SDS011;74260;50.772;7.730;2024-01-07T02:16:36;10.27;;;5.68;;
84142;SDS011;74260;50.772;7.730;2024-01-07T02:17:06;12.43;;;5.60;;
84142;SDS011;74260;50.772;7.730;2024-01-07T02:17:37;11.18;;;5.47;;
84142;SDS011;74260;50.772;7.730;2024-01-07T02:18:07;11.70;;;5.97;;
84142;SDS011;74260;50.772;7.730;2024-01-07T02:18:39;12.68;;;5.57;;
84142;SDS011;74260;50.772;7.730;2024-01-07T02:19:11;10.73;;;5.40;;
84142;SDS011;74260;50.772;7.730;2024-01-07T02:19:42;10.88;;;5.60;;
84142;SDS011;74260;50.772;7.730;2024-01-07T02:20:12;10.10;;;5.30;;
84142;SDS011;74260;50.772;7.730;2024-01-07T02:20:42;10.88;;;5.47;;
84142;SDS011;74260;50.772;7.730;2024-01-07T02:21:13;10.32;;;5.50;;
84142;SDS011;74260;50.772;7.730;2024-01-07T02:21:43;10.27;;;5.35;;
84142;SDS011;74260;50.772;7.730;2024-01-07T02:22:14;11.32;;;5.47;;
84142;SDS011;74260;50.772;7.730;2024-01-07T02:22:44;9.48;;;5.00;;
84142;SDS011;74260;50.772;7.730;2024-01-07T02:23:14;10.88;;;5.00;;
84142;SDS011;74260;50.772;7.730;2024-01-07T02:23:45;12.20;;;5.35;;
84142;SDS011;74260;50.772;7.730;2024-01-07T02:24:15;10.10;;;5.38;;
84142;SDS011;74260;50.772;7.730;2024-01-07T02:24:46;11.80;;;6.07;;
84142;SDS011;74260;50.772;7.730;2024-01-07T02:25:16;9.60;;;5.15;;
84142;SDS011;74260;50.772;7.730;2024-01-07T02:25:47;8.65;;;5.00;;
84142;SDS011;74260;50.772;7.730;2024-01-07T02:26:17;10.10;;;4.95;;
84142;SDS011;74260;50.772;7.730;2024-01-07T02:26:48;8.85;;;4.65;;
84142;SDS011;74260;50.772;7.730;2024-01-07T02:27:18;9.38;;;4.63;;
84142;SDS011;74260;50.772;7.730;2024-01-07T02:27:49;11.18;;;5.35;;
84142;SDS011;74260;50.772;7.730;2024-01-07T02:28:19;9.77;;;5.03;;
84142;SDS011;74260;50.772;7.730;2024-01-07T02:28:49;9.50;;;4.75;;
84142;SDS011;74260;50.772;7.730;2024-01-07T02:29:20;9.15;;;4.78;;
84142;SDS011;74260;50.772;7.730;2024-01-07T02:29:50;10.35;;;4.93;;
84142;SDS011;74260;50.772;7.730;2024-01-07T02:30:21;9.30;;;4.45;;
84142;SDS011;74260;50.772;7.730;2024-01-07T02:30:51;11.55;;;5.82;;
84142;SDS011;74260;50.772;7.730;2024-01-07T02:31:22;10.27;;;5.25;;
84142;SDS011;74260;50.772;7.730;2024-01-07T02:31:52;11.13;;;5.10;;
84142;SDS011;74260;50.772;7.730;2024-01-07T02:32:22;10.65;;;5.00;;
84142;SDS011;74260;50.772;7.730;2024-01-07T02:32:53;10.85;;;5.22;;
84142;SDS011;74260;50.772;7.730;2024-01-07T02:33:23;11.35;;;5.40;;
84142;SDS011;74260;50.772;7.730;2024-01-07T02:33:53;10.27;;;4.93;;
84142;SDS011;74260;50.772;7.730;2024-01-07T02:34:24;10.05;;;4.80;;
84142;SDS011;74260;50.772;7.730;2024-01-07T02:34:54;12.10;;;5.53;;
84142;SDS011;74260;50.772;7.730;2024-01-07T02:35:25;9.80;;;5.38;;
84142;SDS011;74260;50.772;7.730;2024-01-07T02:35:55;9.52;;;5.05;;
84142;SDS011;74260;50.772;7.730;2024-01-07T02:36:25;9.27;;;5.10;;
84142;SDS011;74260;50.772;7.730;2024-01-07T02:36:55;9.90;;;5.38;;
84142;SDS011;74260;50.772;7.730;2024-01-07T02:37:26;15.57;;;5.32;;
84142;SDS011;74260;50.772;7.730;2024-01-07T02:37:56;8.32;;;4.75;;
84142;SDS011;74260;50.772;7.730;2024-01-07T02:38:27;10.07;;;4.88;;
84142;SDS011;74260;50.772;7.730;2024-01-07T02:38:57;9.93;;;4.97;;
84142;SDS011;74260;50.772;7.730;2024-01-07T02:39:27;9.35;;;4.88;;
84142;SDS011;74260;50.772;7.730;2024-01-07T02:39:58;10.95;;;5.40;;
84142;SDS011;74260;50.772;7.730;2024-01-07T02:40:28;10.02;;;4.93;;
84142;SDS011;74260;50.772;7.730;2024-01-07T02:40:58;11.25;;;5.18;;
84142;SDS011;74260;50.772;7.730;2024-01-07T02:41:29;14.70;;;5.63;;
84142;SDS011;74260;50.772;7.730;2024-01-07T02:41:59;10.63;;;5.43;;
84142;SDS011;74260;50.772;7.730;2024-01-07T02:42:29;11.25;;;5.90;;
84142;SDS011;74260;50.772;7.730;2024-01-07T02:43:00;11.60;;;5.65;;
84142;SDS011;74260;50.772;7.730;2024-01-07T02:43:30;10.95;;;5.72;;
84142;SDS011;74260;50.772;7.730;2024-01-07T02:44:00;12.13;;;6.32;;
84142;SDS011;74260;50.772;7.730;2024-01-07T02:44:31;14.70;;;6.55;;
84142;SDS011;74260;50.772;7.730;2024-01-07T02:45:01;10.82;;;5.43;;
84142;SDS011;74260;50.772;7.730;2024-01-07T02:45:32;8.88;;;4.38;;
84142;SDS011;74260;50.772;7.730;2024-01-07T02:46:02;13.82;;;5.55;;
84142;SDS011;74260;50.772;7.730;2024-01-07T02:46:32;10.63;;;5.22;;
84142;SDS011;74260;50.772;7.730;2024-01-07T02:47:03;10.50;;;5.63;;
84142;SDS011;74260;50.772;7.730;2024-01-07T02:47:33;11.38;;;5.22;;
84142;SDS011;74260;50.772;7.730;2024-01-07T02:48:04;13.93;;;5.53;;
84142;SDS011;74260;50.772;7.730;2024-01-07T02:48:34;13.32;;;5.82;;
84142;SDS011;74260;50.772;7.730;2024-01-07T02:49:05;12.73;;;5.82;;
84142;SDS011;74260;50.772;7.730;2024-01-07T02:49:35;12.82;;;6.10;;
84142;SDS011;74260;50.772;7.730;2024-01-07T02:50:05;15.10;;;6.80;;
84142;SDS011;74260;50.772;7.730;2024-01-07T02:50:36;12.07;;;5.78;;
84142;SDS011;74260;50.772;7.730;2024-01-07T02:51:07;11.35;;;5.22;;
84142;SDS011;74260;50.772;7.730;2024-01-07T02:51:38;10.63;;;5.50;;
84142;SDS011;74260;50.772;7.730;2024-01-07T02:52:08;16.85;;;6.25;;
84142;SDS011;74260;50.772;7.730;2024-01-07T02:52:39;10.43;;;5.75;;
84142;SDS011;74260;50.772;7.730;2024-01-07T02:53:09;11.90;;;5.30;;
84142;SDS011;74260;50.772;7.730;2024-01-07T02:53:42;9.98;;;5.13;;
84142;SDS011;74260;50.772;7.730;2024-01-07T02:54:12;11.57;;;5.25;;
84142;SDS011;74260;50.772;7.730;2024-01-07T02:54:42;10.85;;;5.88;;
84142;SDS011;74260;50.772;7.730;2024-01-07T02:55:13;10.07;;;5.30;;
84142;SDS011;74260;50.772;7.730;2024-01-07T02:55:43;12.95;;;5.45;;
84142;SDS011;74260;50.772;7.730;2024-01-07T02:56:13;10.75;;;5.57;;
84142;SDS011;74260;50.772;7.730;2024-01-07T02:56:44;11.48;;;5.10;;
84142;SDS011;74260;50.772;7.730;2024-01-07T02:57:15;13.13;;;6.45;;
84142;SDS011;74260;50.772;7.730;2024-01-07T02:57:45;11.15;;;5.38;;
84142;SDS011;74260;50.772;7.730;2024-01-07T02:58:15;12.10;;;5.75;;
84142;SDS011;74260;50.772;7.730;2024-01-07T02:58:46;14.75;;;6.20;;
84142;SDS011;74260;50.772;7.730;2024-01-07T02:59:16;12.85;;;5.68;;
84142;SDS011;74260;50.772;7.730;2024-01-07T02:59:47;14.15;;;6.05;;
84142;SDS011;74260;50.772;7.730;2024-01-07T03:00:18;11.45;;;5.90;;
84142;SDS011;74260;50.772;7.730;2024-01-07T03:00:48;12.55;;;5.82;;
84142;SDS011;74260;50.772;7.730;2024-01-07T03:01:21;9.80;;;4.85;;
84142;SDS011;74260;50.772;7.730;2024-01-07T03:01:52;10.38;;;5.32;;
84142;SDS011;74260;50.772;7.730;2024-01-07T03:02:22;11.82;;;5.78;;
84142;SDS011;74260;50.772;7.730;2024-01-07T03:02:53;10.70;;;5.32;;
84142;SDS011;74260;50.772;7.730;2024-01-07T03:03:23;11.05;;;5.13;;
84142;SDS011;74260;50.772;7.730;2024-01-07T03:03:53;9.95;;;5.55;;